createdAt,value
2019-01-05T00:00:54.671Z,101656.39
2019-01-05T00:05:58.766Z,101659.42
2019-01-05T00:11:02.829Z,101659.91
2019-01-05T00:16:07.780Z,101655.34
2019-01-05T00:21:12.281Z,101647.42
2019-01-05T00:26:17.100Z,101650.32
2019-01-05T00:31:21.720Z,101624.88
2019-01-05T00:36:33.478Z,101626.33
2019-01-05T00:41:52.009Z,101610.66
2019-01-05T00:46:58.681Z,101612.28
2019-01-05T00:52:03.318Z,101596.70
2019-01-05T00:57:07.455Z,101586.37
2019-01-05T01:02:12.257Z,101586.23
2019-01-05T01:07:16.661Z,101561.16
2019-01-05T01:12:22.977Z,101553.32
2019-01-05T01:17:27.276Z,101544.27
2019-01-05T01:22:31.486Z,101539.91
2019-01-05T01:27:35.906Z,101530.40
2019-01-05T01:32:40.152Z,101521.95
2019-01-05T01:38:13.110Z,101512.44
2019-01-05T01:43:17.500Z,101500.11
2019-01-05T01:48:22.243Z,101492.52
2019-01-05T01:53:27.268Z,101475.73
2019-01-05T01:58:37.477Z,101473.94
2019-01-05T02:03:41.817Z,101465.11
2019-01-05T02:08:52.419Z,101464.88
2019-01-05T02:13:58.257Z,101460.05
2019-01-05T02:19:28.077Z,101456.30
2019-01-05T02:25:19.842Z,101443.02
2019-01-05T02:30:57.815Z,101432.51
2019-01-05T02:36:37.414Z,101414.06
2019-01-05T02:42:30.115Z,101407.27
2019-01-05T02:48:09.345Z,101403.77
2019-01-05T02:53:58.594Z,101397.98
2019-01-05T02:59:45.112Z,101382.30
2019-01-05T03:05:14.191Z,101360.05
2019-01-05T03:11:11.178Z,101337.24
2019-01-05T03:16:57.518Z,101329.48
2019-01-05T03:22:40.848Z,101343.50
2019-01-05T03:28:19.322Z,101334.81
2019-01-05T03:34:02.154Z,101321.86
2019-01-05T03:39:58.979Z,101315.83
2019-01-05T03:45:29.899Z,101304.19
2019-01-05T03:51:20.029Z,101308.42
2019-01-05T03:56:49.182Z,101295.34
2019-01-05T04:02:34.240Z,101289.16
2019-01-05T04:08:06.070Z,101294.21
2019-01-05T04:13:55.331Z,101296.27
2019-01-05T04:19:38.682Z,101293.61
2019-01-05T04:25:10.112Z,101296.25
2019-01-05T04:30:50.948Z,101293.20
2019-01-05T04:36:20.230Z,101292.91
2019-01-05T04:42:07.318Z,101286.38
2019-01-05T04:47:50.309Z,101298.90
2019-01-05T04:53:49.050Z,101287.30
2019-01-05T04:59:25.269Z,101291.16
2019-01-05T05:05:25.782Z,101287.02
2019-01-05T05:10:54.071Z,101287.98
2019-01-05T05:16:50.867Z,101289.20
2019-01-05T05:22:43.715Z,101279.28
2019-01-05T05:28:29.023Z,101272.97
2019-01-05T05:34:12.254Z,101275.75
2019-01-05T05:39:47.333Z,101281.88
2019-01-05T05:45:39.719Z,101274.90
2019-01-05T05:51:14.265Z,101272.17
2019-01-05T05:57:00.635Z,101279.10
2019-01-05T06:02:32.267Z,101282.25
2019-01-05T06:08:29.720Z,101283.58
2019-01-05T06:14:31.378Z,101275.98
2019-01-05T06:20:18.385Z,101280.67
2019-01-05T06:25:53.974Z,101289.98
2019-01-05T06:31:50.729Z,101295.79
2019-01-05T06:37:33.535Z,101298.05
2019-01-05T06:43:06.278Z,101305.22
2019-01-05T06:49:00.388Z,101305.80
2019-01-05T06:54:37.697Z,101302.05
2019-01-05T07:00:16.909Z,101303.83
2019-01-05T07:06:12.380Z,101306.25
2019-01-05T07:11:50.294Z,101320.19
2019-01-05T07:17:35.250Z,101340.23
2019-01-05T07:23:26.186Z,101353.17
2019-01-05T07:29:05.377Z,101367.42
2019-01-05T07:34:51.595Z,101383.75
2019-01-05T07:40:35.139Z,101394.01
2019-01-05T07:46:31.200Z,101399.94
2019-01-05T07:52:10.795Z,101413.58
2019-01-05T07:57:53.255Z,101423.95
2019-01-05T08:03:41.388Z,101423.93
2019-01-05T08:09:20.540Z,101427.66
2019-01-05T08:15:09.059Z,101447.59
2019-01-05T08:20:48.630Z,101450.83
2019-01-05T08:26:32.622Z,101448.36
2019-01-05T08:32:28.106Z,101450.41
2019-01-05T08:38:14.342Z,101444.24
2019-01-05T08:43:57.845Z,101454.89
2019-01-05T08:49:30.667Z,101459.73
2019-01-05T08:55:06.778Z,101468.69
2019-01-05T09:00:53.384Z,101468.33
2019-01-05T09:06:35.323Z,101478.95
2019-01-05T09:12:15.813Z,101481.04
2019-01-05T09:18:18.669Z,101490.34
2019-01-05T09:24:02.103Z,101494.52
2019-01-05T09:29:32.809Z,101503.54
2019-01-05T09:35:10.917Z,101508.50
2019-01-05T09:40:50.057Z,101517.43
2019-01-05T09:46:42.672Z,101510.50
2019-01-05T09:52:29.474Z,101506.44
2019-01-05T09:58:13.188Z,101505.66
2019-01-05T10:03:54.039Z,101503.52
2019-01-05T10:09:33.511Z,101508.90
2019-01-05T10:15:10.865Z,101515.56
2019-01-05T10:21:04.891Z,101521.14
2019-01-05T10:26:47.058Z,101530.69
2019-01-05T10:32:25.210Z,101529.42
2019-01-05T10:38:18.370Z,101519.26
2019-01-05T10:44:00.999Z,101502.41
2019-01-05T10:49:44.884Z,101492.09
2019-01-05T10:55:11.242Z,101493.55
2019-01-05T11:00:51.825Z,101501.73
2019-01-05T11:06:32.045Z,101500.70
2019-01-05T11:12:15.154Z,101510.48
2019-01-05T11:17:58.648Z,101532.42
2019-01-05T11:23:49.641Z,101522.72
2019-01-05T11:29:52.497Z,101531.73
2019-01-05T11:35:52.630Z,101526.98
2019-01-05T11:41:58.256Z,101536.42
2019-01-05T11:47:33.795Z,101542.28
2019-01-05T11:53:16.318Z,101552.42
2019-01-05T11:59:04.458Z,101559.76
2019-01-05T12:04:38.756Z,101554.91
2019-01-05T12:10:07.590Z,101553.34
2019-01-05T12:15:57.002Z,101556.03
2019-01-05T12:21:24.919Z,101558.14
2019-01-05T12:27:27.789Z,101565.50
2019-01-05T12:33:14.408Z,101574.97
2019-01-05T12:39:14.298Z,101588.02
2019-01-05T12:45:27.176Z,101589.52
2019-01-05T12:51:22.677Z,101596.55
2019-01-05T12:57:31.048Z,101593.11
2019-01-05T13:03:21.018Z,101594.09
2019-01-05T13:09:04.645Z,101597.69
2019-01-05T13:14:43.499Z,101606.78
2019-01-05T13:20:18.846Z,101598.41
2019-01-05T13:26:00.612Z,101607.17
2019-01-05T13:32:13.684Z,101607.28
2019-01-05T13:37:52.852Z,101622.89
2019-01-05T13:43:48.263Z,101626.41
2019-01-05T13:49:23.680Z,101631.13
2019-01-05T13:54:49.003Z,101631.92
2019-01-05T13:59:53.080Z,101636.67
2019-01-05T14:04:57.449Z,101651.12
2019-01-05T14:10:01.552Z,101652.69
2019-01-05T14:15:05.782Z,101656.59
2019-01-05T14:20:11.901Z,101673.44
2019-01-05T14:25:15.672Z,101677.55
2019-01-05T14:30:19.683Z,101676.58
2019-01-05T14:35:23.727Z,101677.64
2019-01-05T14:40:27.930Z,101675.13
2019-01-05T14:45:31.997Z,101684.21
2019-01-05T14:50:36.065Z,101680.48
2019-01-05T14:55:40.138Z,101684.02
2019-01-05T15:01:02.030Z,101692.50
2019-01-05T15:06:06.093Z,101705.61
2019-01-05T15:11:12.723Z,101701.73
2019-01-05T15:16:17.779Z,101710.73
2019-01-05T15:21:22.213Z,101709.25
2019-01-05T15:26:44.233Z,101712.88
2019-01-05T15:31:48.441Z,101721.86
2019-01-05T15:36:59.032Z,101724.75
2019-01-05T15:42:11.757Z,101730.94
2019-01-05T15:47:33.413Z,101726.36
2019-01-05T15:52:37.463Z,101731.21
2019-01-05T15:57:59.088Z,101738.28
2019-01-05T16:03:03.181Z,101740.83
2019-01-05T16:08:07.236Z,101752.07
2019-01-05T16:13:11.559Z,101753.66
2019-01-05T16:18:15.916Z,101758.25
2019-01-05T16:23:20.143Z,101765.27
2019-01-05T16:28:41.847Z,101772.00
2019-01-05T16:33:46.037Z,101776.13
2019-01-05T16:38:50.139Z,101783.22
2019-01-05T16:44:11.933Z,101787.56
2019-01-05T16:49:16.099Z,101779.57
2019-01-05T16:54:20.242Z,101788.45
2019-01-05T16:59:24.843Z,101798.84
2019-01-05T17:04:28.960Z,101796.30
2019-01-05T17:09:51.251Z,101785.60
2019-01-05T17:14:56.909Z,101784.92
2019-01-05T17:20:01.873Z,101788.16
2019-01-05T17:25:09.460Z,101794.60
2019-01-05T17:30:13.802Z,101797.73
2019-01-05T17:35:19.216Z,101804.75
2019-01-05T17:40:24.378Z,101801.24
2019-01-05T17:45:30.092Z,101806.45
2019-01-05T17:50:34.937Z,101808.40
2019-01-05T17:55:57.383Z,101806.22
2019-01-05T18:01:03.299Z,101812.02
2019-01-05T18:06:08.632Z,101817.59
2019-01-05T18:11:31.313Z,101821.28
2019-01-05T18:16:44.739Z,101822.33
2019-01-05T18:21:48.853Z,101832.66
2019-01-05T18:26:53.105Z,101829.01
2019-01-05T18:31:57.158Z,101834.80
2019-01-05T18:37:01.226Z,101847.98
2019-01-05T18:42:07.166Z,101858.09
2019-01-05T18:47:11.304Z,101859.91
2019-01-05T18:52:15.426Z,101863.03
2019-01-05T18:57:19.444Z,101862.41
2019-01-05T19:02:23.480Z,101870.95
2019-01-05T19:07:27.678Z,101877.97
2019-01-05T19:12:31.689Z,101884.42
2019-01-05T19:17:35.770Z,101897.66
2019-01-05T19:22:54.947Z,101909.96
2019-01-05T19:28:16.948Z,101906.02
2019-01-05T19:33:38.625Z,101920.63
2019-01-05T19:38:48.687Z,101927.47
2019-01-05T19:43:52.828Z,101935.98
2019-01-05T19:48:56.895Z,101936.92
2019-01-05T19:54:01.252Z,101938.54
2019-01-05T19:59:23.206Z,101956.55
2019-01-05T20:04:30.353Z,101953.69
2019-01-05T20:09:35.087Z,101954.16
2019-01-05T20:14:39.621Z,101952.78
2019-01-05T20:20:02.392Z,101958.30
2019-01-05T20:25:24.832Z,101967.11
2019-01-05T20:30:29.625Z,101971.56
2019-01-05T20:35:34.935Z,101969.77
2019-01-05T20:40:39.403Z,101965.64
2019-01-05T20:45:43.795Z,101964.05
2019-01-05T20:50:48.686Z,101970.23
2019-01-05T20:55:53.506Z,101980.36
2019-01-05T21:01:15.648Z,101984.70
2019-01-05T21:06:19.846Z,101994.72
2019-01-05T21:11:23.966Z,102011.05
2019-01-05T21:16:29.092Z,102018.80
2019-01-05T21:21:33.777Z,102017.67
2019-01-05T21:26:37.862Z,102018.72
2019-01-05T21:31:41.971Z,102025.06
2019-01-05T21:36:46.762Z,102031.68
2019-01-05T21:41:51.032Z,102037.09
2019-01-05T21:46:55.238Z,102033.97
2019-01-05T21:51:59.340Z,102040.72
2019-01-05T21:57:03.397Z,102049.77
2019-01-05T22:02:07.718Z,102058.69
2019-01-05T22:07:31.164Z,102056.56
2019-01-05T22:12:35.793Z,102064.42
2019-01-05T22:17:58.219Z,102066.05
2019-01-05T22:23:09.505Z,102074.14
2019-01-05T22:28:14.562Z,102071.88
2019-01-05T22:33:19.646Z,102071.12
2019-01-05T22:38:24.850Z,102068.24
2019-01-05T22:43:29.448Z,102069.63
2019-01-05T22:48:34.346Z,102072.50
2019-01-05T22:53:39.304Z,102075.73
2019-01-05T22:58:44.844Z,102072.45
2019-01-05T23:03:49.220Z,102081.45
2019-01-05T23:08:53.527Z,102080.18
2019-01-05T23:13:57.585Z,102086.86
2019-01-05T23:19:01.636Z,102084.27
2019-01-05T23:24:05.719Z,102090.94
2019-01-05T23:29:14.824Z,102096.15
2019-01-05T23:34:15.551Z,102104.39
2019-01-05T23:39:19.623Z,102104.86
2019-01-05T23:44:23.750Z,102107.29
2019-01-05T23:49:28.087Z,102102.44
2019-01-05T23:54:32.160Z,102102.73
2019-01-05T23:59:36.244Z,102103.77
